sensor_id;sensor_type;location;lat;lon;timestamp;pressure;altitude;pressure_sealevel;temperature;humidity
8366;BME280;4220;42.502;24.188;2023-08-06T00:00:51;94044.81;;;26.17;70.49
8366;BME280;4220;42.502;24.188;2023-08-06T00:03:18;94105.72;;;26.16;72.99
8366;BME280;4220;42.502;24.188;2023-08-06T00:05:45;94112.63;;;25.89;74.70
8366;BME280;4220;42.502;24.188;2023-08-06T00:08:12;94123.50;;;26.13;73.86
8366;BME280;4220;42.502;24.188;2023-08-06T00:10:39;94111.50;;;26.26;74.76
8366;BME280;4220;42.502;24.188;2023-08-06T00:13:08;94113.25;;;26.34;80.70
8366;BME280;4220;42.502;24.188;2023-08-06T00:15:35;94119.16;;;26.36;81.82
8366;BME280;4220;42.502;24.188;2023-08-06T00:18:02;94117.38;;;26.28;81.74
8366;BME280;4220;42.502;24.188;2023-08-06T00:20:29;94119.50;;;26.35;83.77
8366;BME280;4220;42.502;24.188;2023-08-06T00:22:55;94105.50;;;26.21;85.72
8366;BME280;4220;42.502;24.188;2023-08-06T00:25:22;94090.97;;;26.05;87.87
8366;BME280;4220;42.502;24.188;2023-08-06T00:27:49;94096.78;;;26.15;89.73
8366;BME280;4220;42.502;24.188;2023-08-06T00:30:17;94094.72;;;26.12;90.47
8366;BME280;4220;42.502;24.188;2023-08-06T00:32:44;94102.78;;;26.21;90.78
8366;BME280;4220;42.502;24.188;2023-08-06T00:35:11;94102.31;;;26.31;90.57
8366;BME280;4220;42.502;24.188;2023-08-06T00:37:38;94097.19;;;26.29;91.63
8366;BME280;4220;42.502;24.188;2023-08-06T00:40:06;94096.66;;;26.24;92.68
8366;BME280;4220;42.502;24.188;2023-08-06T00:42:34;94071.72;;;26.34;91.42
8366;BME280;4220;42.502;24.188;2023-08-06T00:45:01;94057.53;;;26.40;91.25
8366;BME280;4220;42.502;24.188;2023-08-06T00:47:29;94045.97;;;26.43;91.54
8366;BME280;4220;42.502;24.188;2023-08-06T00:49:57;94044.38;;;26.42;92.48
8366;BME280;4220;42.502;24.188;2023-08-06T00:52:24;94053.28;;;26.55;92.20
8366;BME280;4220;42.502;24.188;2023-08-06T00:54:51;94052.97;;;26.44;92.77
8366;BME280;4220;42.502;24.188;2023-08-06T00:57:18;94044.06;;;26.59;91.78
8366;BME280;4220;42.502;24.188;2023-08-06T00:59:47;94033.31;;;26.63;92.40
8366;BME280;4220;42.502;24.188;2023-08-06T01:02:14;94022.75;;;26.61;93.42
8366;BME280;4220;42.502;24.188;2023-08-06T01:04:42;94020.03;;;26.61;93.07
8366;BME280;4220;42.502;24.188;2023-08-06T01:07:19;94003.03;;;26.65;93.67
8366;BME280;4220;42.502;24.188;2023-08-06T01:09:56;93998.47;;;26.69;93.58
8366;BME280;4220;42.502;24.188;2023-08-06T01:12:34;94015.41;;;26.62;93.68
8366;BME280;4220;42.502;24.188;2023-08-06T01:15:07;94019.72;;;26.63;92.80
8366;BME280;4220;42.502;24.188;2023-08-06T01:17:37;94021.97;;;26.61;93.27
8366;BME280;4220;42.502;24.188;2023-08-06T01:20:08;94017.91;;;26.55;93.86
8366;BME280;4220;42.502;24.188;2023-08-06T01:22:36;94013.41;;;26.47;95.56
8366;BME280;4220;42.502;24.188;2023-08-06T01:25:04;94008.59;;;26.40;97.36
8366;BME280;4220;42.502;24.188;2023-08-06T01:27:38;94007.03;;;26.27;98.79
8366;BME280;4220;42.502;24.188;2023-08-06T01:30:12;94015.88;;;26.24;99.70
8366;BME280;4220;42.502;24.188;2023-08-06T01:32:43;94037.44;;;26.17;100.00
8366;BME280;4220;42.502;24.188;2023-08-06T01:35:12;94039.84;;;25.82;100.00
8366;BME280;4220;42.502;24.188;2023-08-06T01:37:41;94025.69;;;25.41;100.00
8366;BME280;4220;42.502;24.188;2023-08-06T01:40:10;94014.84;;;25.04;100.00
8366;BME280;4220;42.502;24.188;2023-08-06T01:42:37;94012.47;;;24.91;100.00
8366;BME280;4220;42.502;24.188;2023-08-06T01:45:05;94020.38;;;24.96;100.00
8366;BME280;4220;42.502;24.188;2023-08-06T01:47:32;94009.84;;;24.94;100.00
8366;BME280;4220;42.502;24.188;2023-08-06T01:49:59;94001.06;;;25.09;100.00
8366;BME280;4220;42.502;24.188;2023-08-06T01:52:26;94008.75;;;25.19;100.00
8366;BME280;4220;42.502;24.188;2023-08-06T01:54:54;93964.31;;;24.88;100.00
8366;BME280;4220;42.502;24.188;2023-08-06T01:57:21;93984.63;;;24.82;100.00
8366;BME280;4220;42.502;24.188;2023-08-06T01:59:48;93985.50;;;24.74;100.00
8366;BME280;4220;42.502;24.188;2023-08-06T02:02:15;93989.06;;;24.98;100.00
8366;BME280;4220;42.502;24.188;2023-08-06T02:04:41;93982.06;;;24.97;100.00
8366;BME280;4220;42.502;24.188;2023-08-06T02:07:08;93965.34;;;25.07;100.00
8366;BME280;4220;42.502;24.188;2023-08-06T02:09:35;93976.84;;;25.16;100.00
8366;BME280;4220;42.502;24.188;2023-08-06T02:12:04;93973.69;;;25.14;100.00
8366;BME280;4220;42.502;24.188;2023-08-06T02:14:32;93971.09;;;25.30;100.00
8366;BME280;4220;42.502;24.188;2023-08-06T02:16:59;93966.34;;;25.39;100.00
8366;BME280;4220;42.502;24.188;2023-08-06T02:19:25;93967.81;;;25.49;100.00
8366;BME280;4220;42.502;24.188;2023-08-06T02:21:52;93974.13;;;25.41;100.00
8366;BME280;4220;42.502;24.188;2023-08-06T02:24:19;93986.81;;;25.49;100.00
8366;BME280;4220;42.502;24.188;2023-08-06T02:26:46;94009.75;;;25.39;100.00
8366;BME280;4220;42.502;24.188;2023-08-06T02:29:16;93999.47;;;25.08;100.00
8366;BME280;4220;42.502;24.188;2023-08-06T02:31:43;94014.63;;;25.21;100.00
8366;BME280;4220;42.502;24.188;2023-08-06T02:34:09;94019.38;;;25.12;100.00
8366;BME280;4220;42.502;24.188;2023-08-06T02:36:36;93995.19;;;24.75;100.00
8366;BME280;4220;42.502;24.188;2023-08-06T02:39:03;93982.44;;;23.89;100.00
8366;BME280;4220;42.502;24.188;2023-08-06T02:41:30;93977.25;;;23.34;100.00
8366;BME280;4220;42.502;24.188;2023-08-06T02:43:57;93981.69;;;22.71;100.00
8366;BME280;4220;42.502;24.188;2023-08-06T02:46:25;93974.84;;;22.65;100.00
8366;BME280;4220;42.502;24.188;2023-08-06T02:48:52;93983.47;;;22.67;100.00
8366;BME280;4220;42.502;24.188;2023-08-06T02:51:18;93981.63;;;22.89;100.00
8366;BME280;4220;42.502;24.188;2023-08-06T02:53:45;93978.75;;;23.23;100.00
8366;BME280;4220;42.502;24.188;2023-08-06T02:56:14;94002.91;;;23.57;100.00
8366;BME280;4220;42.502;24.188;2023-08-06T02:58:40;94006.91;;;23.80;100.00
8366;BME280;4220;42.502;24.188;2023-08-06T03:01:07;93985.09;;;23.77;100.00
8366;BME280;4220;42.502;24.188;2023-08-06T03:03:35;93980.09;;;23.87;100.00
8366;BME280;4220;42.502;24.188;2023-08-06T03:06:02;93954.25;;;23.69;100.00
8366;BME280;4220;42.502;24.188;2023-08-06T03:08:29;93987.16;;;24.00;100.00
8366;BME280;4220;42.502;24.188;2023-08-06T03:10:56;93975.72;;;24.16;100.00
8366;BME280;4220;42.502;24.188;2023-08-06T03:13:23;93956.78;;;24.28;100.00
8366;BME280;4220;42.502;24.188;2023-08-06T03:15:53;93948.34;;;24.29;100.00
8366;BME280;4220;42.502;24.188;2023-08-06T03:18:20;93955.09;;;24.23;100.00
8366;BME280;4220;42.502;24.188;2023-08-06T03:20:49;93943.22;;;24.16;100.00
8366;BME280;4220;42.502;24.188;2023-08-06T03:23:16;93950.41;;;24.32;100.00
8366;BME280;4220;42.502;24.188;2023-08-06T03:25:43;93961.69;;;24.34;100.00
8366;BME280;4220;42.502;24.188;2023-08-06T03:28:09;93965.50;;;24.33;100.00
8366;BME280;4220;42.502;24.188;2023-08-06T03:30:36;93958.16;;;24.22;100.00
8366;BME280;4220;42.502;24.188;2023-08-06T03:33:03;93971.13;;;23.95;100.00
8366;BME280;4220;42.502;24.188;2023-08-06T03:35:30;93975.97;;;23.40;100.00
8366;BME280;4220;42.502;24.188;2023-08-06T03:37:58;93975.28;;;22.85;100.00
8366;BME280;4220;42.502;24.188;2023-08-06T03:40:25;93968.16;;;22.71;100.00
8366;BME280;4220;42.502;24.188;2023-08-06T03:42:52;93982.03;;;22.61;100.00
8366;BME280;4220;42.502;24.188;2023-08-06T03:45:19;93981.75;;;22.37;100.00
8366;BME280;4220;42.502;24.188;2023-08-06T03:47:46;93986.34;;;22.45;100.00
8366;BME280;4220;42.502;24.188;2023-08-06T03:50:12;93995.75;;;22.22;100.00
8366;BME280;4220;42.502;24.188;2023-08-06T03:52:39;93988.78;;;21.95;100.00
8366;BME280;4220;42.502;24.188;2023-08-06T03:55:08;93994.34;;;21.90;100.00
8366;BME280;4220;42.502;24.188;2023-08-06T03:57:35;93998.66;;;21.91;100.00
8366;BME280;4220;42.502;24.188;2023-08-06T04:00:02;94000.25;;;22.01;100.00
8366;BME280;4220;42.502;24.188;2023-08-06T04:02:29;93993.69;;;22.02;100.00
8366;BME280;4220;42.502;24.188;2023-08-06T04:04:56;94002.75;;;21.72;100.00
8366;BME280;4220;42.502;24.188;2023-08-06T04:07:24;94009.69;;;21.56;100.00
8366;BME280;4220;42.502;24.188;2023-08-06T04:09:53;94006.34;;;21.50;100.00
8366;BME280;4220;42.502;24.188;2023-08-06T04:12:21;94001.28;;;21.48;100.00
8366;BME280;4220;42.502;24.188;2023-08-06T04:14:49;93994.63;;;21.37;100.00
8366;BME280;4220;42.502;24.188;2023-08-06T04:17:16;94008.09;;;21.37;100.00
8366;BME280;4220;42.502;24.188;2023-08-06T04:19:46;94023.00;;;21.35;100.00
8366;BME280;4220;42.502;24.188;2023-08-06T04:22:13;94030.97;;;20.70;100.00
8366;BME280;4220;42.502;24.188;2023-08-06T04:24:39;93998.31;;;20.18;100.00
8366;BME280;4220;42.502;24.188;2023-08-06T04:27:07;94034.41;;;20.31;100.00
8366;BME280;4220;42.502;24.188;2023-08-06T04:29:35;94035.41;;;20.21;100.00
8366;BME280;4220;42.502;24.188;2023-08-06T04:32:03;94035.41;;;20.21;100.00
8366;BME280;4220;42.502;24.188;2023-08-06T04:34:30;94026.34;;;19.95;100.00
8366;BME280;4220;42.502;24.188;2023-08-06T04:36:58;94011.72;;;19.88;100.00
8366;BME280;4220;42.502;24.188;2023-08-06T04:39:25;94015.03;;;19.85;100.00
8366;BME280;4220;42.502;24.188;2023-08-06T04:41:52;94009.44;;;19.81;100.00
8366;BME280;4220;42.502;24.188;2023-08-06T04:44:19;93999.94;;;19.97;100.00
8366;BME280;4220;42.502;24.188;2023-08-06T04:46:47;93985.66;;;20.19;100.00
8366;BME280;4220;42.502;24.188;2023-08-06T04:49:14;93981.84;;;20.42;100.00
8366;BME280;4220;42.502;24.188;2023-08-06T04:51:41;93978.22;;;20.47;100.00
8366;BME280;4220;42.502;24.188;2023-08-06T04:54:08;93986.19;;;20.52;100.00
8366;BME280;4220;42.502;24.188;2023-08-06T04:56:34;93993.44;;;20.73;100.00
8366;BME280;4220;42.502;24.188;2023-08-06T04:59:01;93973.16;;;20.76;100.00
8366;BME280;4220;42.502;24.188;2023-08-06T05:01:28;93991.34;;;20.70;100.00
8366;BME280;4220;42.502;24.188;2023-08-06T05:03:56;93994.25;;;20.52;100.00
8366;BME280;4220;42.502;24.188;2023-08-06T05:06:23;93976.25;;;20.30;100.00
8366;BME280;4220;42.502;24.188;2023-08-06T05:08:50;93993.56;;;20.15;100.00
8366;BME280;4220;42.502;24.188;2023-08-06T05:11:17;94019.50;;;20.11;100.00
8366;BME280;4220;42.502;24.188;2023-08-06T05:13:43;94012.09;;;19.73;100.00
8366;BME280;4220;42.502;24.188;2023-08-06T05:16:10;93988.47;;;19.20;100.00
8366;BME280;4220;42.502;24.188;2023-08-06T05:18:37;93973.25;;;19.02;100.00
8366;BME280;4220;42.502;24.188;2023-08-06T05:21:06;93933.97;;;18.92;100.00
8366;BME280;4220;42.502;24.188;2023-08-06T05:23:32;93906.72;;;18.85;100.00
8366;BME280;4220;42.502;24.188;2023-08-06T05:25:59;93930.78;;;18.90;100.00
8366;BME280;4220;42.502;24.188;2023-08-06T05:28:26;93924.22;;;18.97;100.00
8366;BME280;4220;42.502;24.188;2023-08-06T05:30:53;93945.34;;;19.39;100.00
8366;BME280;4220;42.502;24.188;2023-08-06T05:33:20;93931.25;;;19.55;100.00
8366;BME280;4220;42.502;24.188;2023-08-06T05:35:46;93980.47;;;20.00;100.00
8366;BME280;4220;42.502;24.188;2023-08-06T05:38:15;93994.16;;;20.12;100.00
8366;BME280;4220;42.502;24.188;2023-08-06T05:40:42;94012.53;;;20.33;100.00
8366;BME280;4220;42.502;24.188;2023-08-06T05:43:09;94009.22;;;20.36;100.00
8366;BME280;4220;42.502;24.188;2023-08-06T05:45:36;94019.66;;;20.29;100.00
8366;BME280;4220;42.502;24.188;2023-08-06T05:48:03;93999.31;;;20.23;100.00
8366;BME280;4220;42.502;24.188;2023-08-06T05:50:30;94003.19;;;20.30;100.00
8366;BME280;4220;42.502;24.188;2023-08-06T05:52:57;94010.63;;;20.55;100.00
8366;BME280;4220;42.502;24.188;2023-08-06T05:55:25;94013.03;;;20.65;100.00
8366;BME280;4220;42.502;24.188;2023-08-06T05:57:52;94018.16;;;20.75;100.00
8366;BME280;4220;42.502;24.188;2023-08-06T06:00:20;94019.47;;;20.86;100.00
8366;BME280;4220;42.502;24.188;2023-08-06T06:02:47;94006.75;;;21.09;100.00
8366;BME280;4220;42.502;24.188;2023-08-06T06:05:13;94011.56;;;21.29;100.00
8366;BME280;4220;42.502;24.188;2023-08-06T06:07:40;94010.66;;;21.42;100.00
8366;BME280;4220;42.502;24.188;2023-08-06T06:10:08;94012.22;;;21.43;100.00
8366;BME280;4220;42.502;24.188;2023-08-06T06:12:38;94019.66;;;21.38;100.00
8366;BME280;4220;42.502;24.188;2023-08-06T06:15:05;94016.06;;;21.60;100.00
8366;BME280;4220;42.502;24.188;2023-08-06T06:17:32;94011.16;;;21.79;100.00
8366;BME280;4220;42.502;24.188;2023-08-06T06:19:59;94016.28;;;21.89;100.00
8366;BME280;4220;42.502;24.188;2023-08-06T06:22:26;94008.28;;;21.75;100.00
8366;BME280;4220;42.502;24.188;2023-08-06T06:24:53;94002.72;;;21.63;100.00
8366;BME280;4220;42.502;24.188;2023-08-06T06:27:20;94006.78;;;21.26;100.00
8366;BME280;4220;42.502;24.188;2023-08-06T06:29:48;93990.59;;;21.26;100.00
8366;BME280;4220;42.502;24.188;2023-08-06T06:32:15;94003.94;;;21.23;100.00
8366;BME280;4220;42.502;24.188;2023-08-06T06:34:41;94001.31;;;21.57;100.00
8366;BME280;4220;42.502;24.188;2023-08-06T06:37:08;94005.59;;;21.84;100.00
8366;BME280;4220;42.502;24.188;2023-08-06T06:39:35;94024.19;;;22.02;100.00
8366;BME280;4220;42.502;24.188;2023-08-06T06:42:02;94036.75;;;22.07;100.00
8366;BME280;4220;42.502;24.188;2023-08-06T06:44:29;94043.41;;;22.35;100.00
8366;BME280;4220;42.502;24.188;2023-08-06T06:46:57;94038.31;;;22.42;100.00
8366;BME280;4220;42.502;24.188;2023-08-06T06:49:24;94037.81;;;22.49;100.00
8366;BME280;4220;42.502;24.188;2023-08-06T06:51:51;94044.66;;;22.46;100.00
8366;BME280;4220;42.502;24.188;2023-08-06T06:54:17;94052.47;;;22.48;100.00
8366;BME280;4220;42.502;24.188;2023-08-06T06:56:44;94053.91;;;22.28;100.00
8366;BME280;4220;42.502;24.188;2023-08-06T06:59:11;94037.38;;;21.95;100.00
8366;BME280;4220;42.502;24.188;2023-08-06T07:01:38;94045.47;;;22.04;100.00
8366;BME280;4220;42.502;24.188;2023-08-06T07:04:06;94039.94;;;22.00;100.00
8366;BME280;4220;42.502;24.188;2023-08-06T07:06:33;94051.22;;;22.28;100.00
8366;BME280;4220;42.502;24.188;2023-08-06T07:09:00;94036.22;;;22.56;100.00
8366;BME280;4220;42.502;24.188;2023-08-06T07:11:27;94032.97;;;22.97;100.00
8366;BME280;4220;42.502;24.188;2023-08-06T07:13:56;93920.94;;;22.77;100.00
8366;BME280;4220;42.502;24.188;2023-08-06T07:16:23;94026.91;;;23.88;100.00
8366;BME280;4220;42.502;24.188;2023-08-06T07:18:51;94032.00;;;24.31;100.00
8366;BME280;4220;42.502;24.188;2023-08-06T07:21:19;94030.38;;;24.50;100.00
8366;BME280;4220;42.502;24.188;2023-08-06T07:23:46;94046.13;;;24.57;100.00
8366;BME280;4220;42.502;24.188;2023-08-06T07:26:15;94049.13;;;24.23;100.00
8366;BME280;4220;42.502;24.188;2023-08-06T07:28:42;94051.75;;;23.31;100.00
8366;BME280;4220;42.502;24.188;2023-08-06T07:31:10;94070.78;;;23.06;100.00
8366;BME280;4220;42.502;24.188;2023-08-06T07:33:36;94060.47;;;22.91;100.00
8366;BME280;4220;42.502;24.188;2023-08-06T07:36:08;94040.69;;;22.52;100.00
8366;BME280;4220;42.502;24.188;2023-08-06T07:38:36;94083.44;;;22.50;100.00
8366;BME280;4220;42.502;24.188;2023-08-06T07:41:03;94093.78;;;22.23;100.00
8366;BME280;4220;42.502;24.188;2023-08-06T07:43:30;94084.09;;;22.22;100.00
8366;BME280;4220;42.502;24.188;2023-08-06T07:45:58;94070.13;;;22.28;100.00
8366;BME280;4220;42.502;24.188;2023-08-06T07:48:25;94058.50;;;22.36;100.00
8366;BME280;4220;42.502;24.188;2023-08-06T07:50:52;94051.50;;;22.44;100.00
8366;BME280;4220;42.502;24.188;2023-08-06T07:53:19;94056.91;;;22.44;100.00
8366;BME280;4220;42.502;24.188;2023-08-06T07:55:49;94067.53;;;22.57;100.00
8366;BME280;4220;42.502;24.188;2023-08-06T07:58:16;94016.22;;;22.40;100.00
8366;BME280;4220;42.502;24.188;2023-08-06T08:00:43;94045.91;;;22.74;100.00
8366;BME280;4220;42.502;24.188;2023-08-06T08:03:11;94048.75;;;22.87;100.00
8366;BME280;4220;42.502;24.188;2023-08-06T08:05:38;94054.28;;;22.90;100.00
8366;BME280;4220;42.502;24.188;2023-08-06T08:08:05;94062.09;;;22.92;100.00
8366;BME280;4220;42.502;24.188;2023-08-06T08:10:33;94086.72;;;22.90;100.00
8366;BME280;4220;42.502;24.188;2023-08-06T08:13:01;94065.59;;;22.92;100.00
8366;BME280;4220;42.502;24.188;2023-08-06T08:15:28;94071.94;;;22.88;100.00
8366;BME280;4220;42.502;24.188;2023-08-06T08:17:55;94039.53;;;22.70;100.00
8366;BME280;4220;42.502;24.188;2023-08-06T08:20:22;94076.63;;;23.16;100.00
8366;BME280;4220;42.502;24.188;2023-08-06T08:22:49;94057.69;;;23.16;100.00
8366;BME280;4220;42.502;24.188;2023-08-06T08:25:16;94028.81;;;23.00;100.00
8366;BME280;4220;42.502;24.188;2023-08-06T08:27:43;94064.78;;;23.38;100.00
8366;BME280;4220;42.502;24.188;2023-08-06T08:30:11;94057.22;;;23.52;100.00
8366;BME280;4220;42.502;24.188;2023-08-06T08:32:38;94069.66;;;23.53;100.00
8366;BME280;4220;42.502;24.188;2023-08-06T08:35:05;94051.50;;;23.54;100.00
8366;BME280;4220;42.502;24.188;2023-08-06T08:37:32;94061.81;;;23.60;100.00
8366;BME280;4220;42.502;24.188;2023-08-06T08:39:59;94074.25;;;23.82;100.00
8366;BME280;4220;42.502;24.188;2023-08-06T08:42:26;94037.06;;;23.70;100.00
8366;BME280;4220;42.502;24.188;2023-08-06T08:47:24;94064.06;;;23.58;100.00
8366;BME280;4220;42.502;24.188;2023-08-06T08:49:52;94032.03;;;23.60;100.00
8366;BME280;4220;42.502;24.188;2023-08-06T08:52:21;94027.97;;;23.75;100.00
8366;BME280;4220;42.502;24.188;2023-08-06T08:54:48;93998.91;;;23.63;100.00
8366;BME280;4220;42.502;24.188;2023-08-06T08:57:17;94016.22;;;23.91;100.00
8366;BME280;4220;42.502;24.188;2023-08-06T08:59:44;94021.22;;;24.01;100.00
8366;BME280;4220;42.502;24.188;2023-08-06T09:02:12;94046.88;;;24.04;100.00
8366;BME280;4220;42.502;24.188;2023-08-06T09:04:44;94015.63;;;24.06;100.00
8366;BME280;4220;42.502;24.188;2023-08-06T09:07:13;94047.59;;;23.92;100.00
8366;BME280;4220;42.502;24.188;2023-08-06T09:09:43;94031.59;;;23.99;100.00
8366;BME280;4220;42.502;24.188;2023-08-06T09:12:13;94026.34;;;24.24;100.00
8366;BME280;4220;42.502;24.188;2023-08-06T09:14:41;94033.47;;;24.28;100.00
8366;BME280;4220;42.502;24.188;2023-08-06T09:17:08;94022.91;;;24.15;100.00
8366;BME280;4220;42.502;24.188;2023-08-06T09:19:36;94048.00;;;24.44;100.00
8366;BME280;4220;42.502;24.188;2023-08-06T09:22:04;94040.31;;;24.46;100.00
8366;BME280;4220;42.502;24.188;2023-08-06T09:24:38;94018.47;;;24.31;100.00
8366;BME280;4220;42.502;24.188;2023-08-06T09:27:10;94018.47;;;24.31;100.00
8366;BME280;4220;42.502;24.188;2023-08-06T09:29:40;94016.25;;;24.45;100.00
8366;BME280;4220;42.502;24.188;2023-08-06T09:32:08;94024.75;;;24.55;100.00
8366;BME280;4220;42.502;24.188;2023-08-06T09:34:35;94015.38;;;24.53;100.00
8366;BME280;4220;42.502;24.188;2023-08-06T09:37:08;93989.19;;;24.24;100.00
8366;BME280;4220;42.502;24.188;2023-08-06T09:39:36;94007.91;;;24.50;100.00
8366;BME280;4220;42.502;24.188;2023-08-06T09:42:03;94031.44;;;24.58;100.00
8366;BME280;4220;42.502;24.188;2023-08-06T09:44:31;94019.59;;;24.75;100.00
8366;BME280;4220;42.502;24.188;2023-08-06T09:46:59;94025.19;;;24.78;100.00
8366;BME280;4220;42.502;24.188;2023-08-06T09:49:27;94038.13;;;24.93;100.00
8366;BME280;4220;42.502;24.188;2023-08-06T09:51:54;94031.09;;;24.92;100.00
8366;BME280;4220;42.502;24.188;2023-08-06T09:54:25;94015.16;;;24.91;100.00
8366;BME280;4220;42.502;24.188;2023-08-06T09:56:53;94005.13;;;24.91;93.44
8366;BME280;4220;42.502;24.188;2023-08-06T09:59:21;94032.50;;;25.10;87.02
8366;BME280;4220;42.502;24.188;2023-08-06T10:01:48;94028.53;;;25.44;83.56
8366;BME280;4220;42.502;24.188;2023-08-06T10:04:15;94051.06;;;25.69;81.68
8366;BME280;4220;42.502;24.188;2023-08-06T10:06:46;94024.09;;;25.88;81.63
8366;BME280;4220;42.502;24.188;2023-08-06T10:09:13;93997.13;;;25.67;81.20
8366;BME280;4220;42.502;24.188;2023-08-06T10:11:42;94044.28;;;25.63;80.97
8366;BME280;4220;42.502;24.188;2023-08-06T10:14:16;94039.84;;;25.70;82.97
8366;BME280;4220;42.502;24.188;2023-08-06T10:16:47;94061.69;;;25.98;81.17
8366;BME280;4220;42.502;24.188;2023-08-06T10:19:15;94059.78;;;25.74;79.49
8366;BME280;4220;42.502;24.188;2023-08-06T10:22:08;94044.97;;;25.72;79.17
8366;BME280;4220;42.502;24.188;2023-08-06T10:24:48;94045.16;;;25.91;79.04
8366;BME280;4220;42.502;24.188;2023-08-06T10:27:22;94022.78;;;25.70;76.96
8366;BME280;4220;42.502;24.188;2023-08-06T10:29:49;94020.72;;;25.91;78.01
8366;BME280;4220;42.502;24.188;2023-08-06T10:32:16;94034.63;;;26.02;76.28
8366;BME280;4220;42.502;24.188;2023-08-06T10:34:59;94039.56;;;26.24;76.78
8366;BME280;4220;42.502;24.188;2023-08-06T10:37:35;94037.75;;;26.55;75.10
8366;BME280;4220;42.502;24.188;2023-08-06T10:40:03;94029.19;;;26.41;74.24
8366;BME280;4220;42.502;24.188;2023-08-06T10:42:34;94042.28;;;26.51;75.67
8366;BME280;4220;42.502;24.188;2023-08-06T10:45:25;94030.13;;;26.89;72.37
8366;BME280;4220;42.502;24.188;2023-08-06T10:47:54;94037.41;;;26.85;72.47
8366;BME280;4220;42.502;24.188;2023-08-06T10:50:22;94034.78;;;26.88;72.33
8366;BME280;4220;42.502;24.188;2023-08-06T10:52:49;94045.59;;;26.73;71.88
8366;BME280;4220;42.502;24.188;2023-08-06T10:55:27;94040.16;;;26.73;71.32
8366;BME280;4220;42.502;24.188;2023-08-06T10:57:56;94047.34;;;26.65;72.21
8366;BME280;4220;42.502;24.188;2023-08-06T11:00:24;94034.91;;;26.36;72.85
8366;BME280;4220;42.502;24.188;2023-08-06T11:02:52;94053.84;;;26.09;74.96
8366;BME280;4220;42.502;24.188;2023-08-06T11:05:20;94050.34;;;26.08;74.80
8366;BME280;4220;42.502;24.188;2023-08-06T11:07:47;94047.50;;;26.05;74.92
8366;BME280;4220;42.502;24.188;2023-08-06T11:10:16;94057.00;;;26.23;74.30
8366;BME280;4220;42.502;24.188;2023-08-06T11:12:43;94049.63;;;26.35;71.85
8366;BME280;4220;42.502;24.188;2023-08-06T11:15:12;94071.25;;;26.32;69.49
8366;BME280;4220;42.502;24.188;2023-08-06T11:17:40;94042.88;;;26.45;70.36
8366;BME280;4220;42.502;24.188;2023-08-06T11:20:09;94033.69;;;26.49;67.69
8366;BME280;4220;42.502;24.188;2023-08-06T11:22:37;94015.75;;;26.33;65.30
8366;BME280;4220;42.502;24.188;2023-08-06T11:25:05;94056.78;;;26.55;65.59
8366;BME280;4220;42.502;24.188;2023-08-06T11:27:32;94051.59;;;26.50;66.90
8366;BME280;4220;42.502;24.188;2023-08-06T11:29:59;94057.44;;;26.65;67.06
8366;BME280;4220;42.502;24.188;2023-08-06T11:32:28;94054.47;;;26.70;65.26
8366;BME280;4220;42.502;24.188;2023-08-06T11:34:55;94036.41;;;26.49;64.78
8366;BME280;4220;42.502;24.188;2023-08-06T11:37:22;94072.25;;;26.67;63.91
8366;BME280;4220;42.502;24.188;2023-08-06T11:39:51;94052.00;;;26.65;64.19
8366;BME280;4220;42.502;24.188;2023-08-06T11:42:18;94071.72;;;26.61;65.68
8366;BME280;4220;42.502;24.188;2023-08-06T11:44:45;94079.19;;;26.65;65.44
8366;BME280;4220;42.502;24.188;2023-08-06T11:47:14;94072.72;;;26.97;63.61
8366;BME280;4220;42.502;24.188;2023-08-06T11:49:44;94068.41;;;26.96;62.66
8366;BME280;4220;42.502;24.188;2023-08-06T11:52:16;94139.22;;;26.84;61.33
8366;BME280;4220;42.502;24.188;2023-08-06T11:54:45;94077.31;;;27.24;61.18
8366;BME280;4220;42.502;24.188;2023-08-06T11:57:13;94081.50;;;27.49;57.42
8366;BME280;4220;42.502;24.188;2023-08-06T11:59:40;94083.94;;;27.85;58.78
8366;BME280;4220;42.502;24.188;2023-08-06T12:02:08;94083.31;;;28.08;57.56
8366;BME280;4220;42.502;24.188;2023-08-06T12:04:59;94083.72;;;27.94;56.42
8366;BME280;4220;42.502;24.188;2023-08-06T12:07:28;94083.22;;;27.88;57.82
8366;BME280;4220;42.502;24.188;2023-08-06T12:09:55;94072.13;;;27.81;58.26
8366;BME280;4220;42.502;24.188;2023-08-06T12:12:21;94104.50;;;27.83;57.32
8366;BME280;4220;42.502;24.188;2023-08-06T12:14:48;94102.09;;;27.97;58.40
8366;BME280;4220;42.502;24.188;2023-08-06T12:17:15;94086.91;;;27.80;55.45
8366;BME280;4220;42.502;24.188;2023-08-06T12:19:44;94083.50;;;27.83;56.34
8366;BME280;4220;42.502;24.188;2023-08-06T12:22:12;94077.59;;;27.81;58.51
8366;BME280;4220;42.502;24.188;2023-08-06T12:24:40;94087.19;;;27.75;56.52
8366;BME280;4220;42.502;24.188;2023-08-06T12:27:07;94088.22;;;27.40;57.24
8366;BME280;4220;42.502;24.188;2023-08-06T12:29:34;94075.94;;;27.46;56.85
8366;BME280;4220;42.502;24.188;2023-08-06T12:32:01;94097.56;;;27.70;57.51
8366;BME280;4220;42.502;24.188;2023-08-06T12:34:28;94135.69;;;27.70;57.27
8366;BME280;4220;42.502;24.188;2023-08-06T12:36:54;94096.22;;;27.79;58.12
8366;BME280;4220;42.502;24.188;2023-08-06T12:39:23;94105.50;;;28.25;58.83
8366;BME280;4220;42.502;24.188;2023-08-06T12:41:50;94081.19;;;28.01;57.48
8366;BME280;4220;42.502;24.188;2023-08-06T12:44:16;94089.44;;;27.89;60.21
8366;BME280;4220;42.502;24.188;2023-08-06T12:46:43;94106.97;;;27.72;60.41
8366;BME280;4220;42.502;24.188;2023-08-06T12:49:10;94090.41;;;27.18;61.48
8366;BME280;4220;42.502;24.188;2023-08-06T12:51:37;94098.31;;;26.80;61.94
8366;BME280;4220;42.502;24.188;2023-08-06T12:54:04;94102.22;;;26.95;59.44
8366;BME280;4220;42.502;24.188;2023-08-06T12:56:32;94096.34;;;26.93;60.70
8366;BME280;4220;42.502;24.188;2023-08-06T12:58:58;94109.09;;;26.65;63.24
8366;BME280;4220;42.502;24.188;2023-08-06T13:01:25;94094.44;;;26.53;64.40
8366;BME280;4220;42.502;24.188;2023-08-06T13:03:52;94110.94;;;26.60;65.25
8366;BME280;4220;42.502;24.188;2023-08-06T13:06:19;94109.50;;;26.51;66.38
8366;BME280;4220;42.502;24.188;2023-08-06T13:08:46;94093.50;;;26.49;67.10
8366;BME280;4220;42.502;24.188;2023-08-06T13:11:13;94091.66;;;26.66;67.70